sensor_id;sensor_type;location;lat;lon;timestamp;temperature;humidity
6375;DHT22;35400;45.472;-122.822;2023-09-18T00:01:45;23.80;83.90
6375;DHT22;35400;45.472;-122.822;2023-09-18T00:04:12;23.70;84.10
6375;DHT22;35400;45.472;-122.822;2023-09-18T00:06:39;23.60;84.30
6375;DHT22;35400;45.472;-122.822;2023-09-18T00:09:06;23.60;84.70
6375;DHT22;35400;45.472;-122.822;2023-09-18T00:11:38;23.60;84.00
6375;DHT22;35400;45.472;-122.822;2023-09-18T00:14:05;23.50;84.10
6375;DHT22;35400;45.472;-122.822;2023-09-18T00:16:32;23.50;83.80
6375;DHT22;35400;45.472;-122.822;2023-09-18T00:18:59;23.40;85.00
6375;DHT22;35400;45.472;-122.822;2023-09-18T00:21:26;23.30;84.50
6375;DHT22;35400;45.472;-122.822;2023-09-18T00:23:55;23.30;84.80
6375;DHT22;35400;45.472;-122.822;2023-09-18T00:26:21;23.30;84.90
6375;DHT22;35400;45.472;-122.822;2023-09-18T00:28:52;23.20;84.20
6375;DHT22;35400;45.472;-122.822;2023-09-18T00:31:19;23.10;84.20
6375;DHT22;35400;45.472;-122.822;2023-09-18T00:33:46;23.00;84.80
6375;DHT22;35400;45.472;-122.822;2023-09-18T00:36:12;22.80;85.40
6375;DHT22;35400;45.472;-122.822;2023-09-18T00:38:40;22.70;85.30
6375;DHT22;35400;45.472;-122.822;2023-09-18T00:41:07;22.60;85.90
6375;DHT22;35400;45.472;-122.822;2023-09-18T00:43:33;22.60;86.00
6375;DHT22;35400;45.472;-122.822;2023-09-18T00:46:01;22.60;86.40
6375;DHT22;35400;45.472;-122.822;2023-09-18T00:48:28;22.50;86.70
6375;DHT22;35400;45.472;-122.822;2023-09-18T00:50:56;22.30;86.90
6375;DHT22;35400;45.472;-122.822;2023-09-18T00:53:24;22.30;87.30
6375;DHT22;35400;45.472;-122.822;2023-09-18T00:55:54;22.20;87.90
6375;DHT22;35400;45.472;-122.822;2023-09-18T00:58:22;22.10;88.60
6375;DHT22;35400;45.472;-122.822;2023-09-18T01:00:49;22.00;90.00
6375;DHT22;35400;45.472;-122.822;2023-09-18T01:03:19;22.00;90.00
6375;DHT22;35400;45.472;-122.822;2023-09-18T01:05:46;22.00;90.20
6375;DHT22;35400;45.472;-122.822;2023-09-18T01:08:13;21.90;90.30
6375;DHT22;35400;45.472;-122.822;2023-09-18T01:14:00;21.90;90.50
6375;DHT22;35400;45.472;-122.822;2023-09-18T01:16:39;21.70;90.70
6375;DHT22;35400;45.472;-122.822;2023-09-18T01:19:08;21.70;90.60
6375;DHT22;35400;45.472;-122.822;2023-09-18T01:21:35;21.70;91.00
6375;DHT22;35400;45.472;-122.822;2023-09-18T01:24:03;21.60;91.10
6375;DHT22;35400;45.472;-122.822;2023-09-18T01:26:30;21.50;91.40
6375;DHT22;35400;45.472;-122.822;2023-09-18T01:28:57;21.40;91.40
6375;DHT22;35400;45.472;-122.822;2023-09-18T01:31:24;21.40;91.50
6375;DHT22;35400;45.472;-122.822;2023-09-18T01:33:53;21.30;91.50
6375;DHT22;35400;45.472;-122.822;2023-09-18T01:36:20;21.20;91.70
6375;DHT22;35400;45.472;-122.822;2023-09-18T01:38:48;21.10;91.70
6375;DHT22;35400;45.472;-122.822;2023-09-18T01:41:15;21.10;91.30
6375;DHT22;35400;45.472;-122.822;2023-09-18T01:43:42;21.10;91.00
6375;DHT22;35400;45.472;-122.822;2023-09-18T01:46:10;20.90;90.80
6375;DHT22;35400;45.472;-122.822;2023-09-18T01:48:36;20.90;90.50
6375;DHT22;35400;45.472;-122.822;2023-09-18T01:51:04;20.80;90.60
6375;DHT22;35400;45.472;-122.822;2023-09-18T01:53:31;20.70;90.80
6375;DHT22;35400;45.472;-122.822;2023-09-18T01:55:57;20.60;90.90
6375;DHT22;35400;45.472;-122.822;2023-09-18T01:58:24;20.60;90.90
6375;DHT22;35400;45.472;-122.822;2023-09-18T02:00:51;20.50;90.90
6375;DHT22;35400;45.472;-122.822;2023-09-18T02:03:18;20.40;91.10
6375;DHT22;35400;45.472;-122.822;2023-09-18T02:05:46;20.40;91.70
6375;DHT22;35400;45.472;-122.822;2023-09-18T02:08:13;20.30;91.50
6375;DHT22;35400;45.472;-122.822;2023-09-18T02:10:40;20.30;91.40
6375;DHT22;35400;45.472;-122.822;2023-09-18T02:13:07;20.20;91.30
6375;DHT22;35400;45.472;-122.822;2023-09-18T02:15:37;20.20;91.40
6375;DHT22;35400;45.472;-122.822;2023-09-18T02:18:04;20.10;91.60
6375;DHT22;35400;45.472;-122.822;2023-09-18T02:20:30;20.10;91.80
6375;DHT22;35400;45.472;-122.822;2023-09-18T02:22:57;20.00;91.90
6375;DHT22;35400;45.472;-122.822;2023-09-18T02:25:24;20.00;91.50
6375;DHT22;35400;45.472;-122.822;2023-09-18T02:27:52;20.00;91.20
6375;DHT22;35400;45.472;-122.822;2023-09-18T02:30:20;19.90;91.40
6375;DHT22;35400;45.472;-122.822;2023-09-18T02:32:47;19.90;91.30
6375;DHT22;35400;45.472;-122.822;2023-09-18T02:35:14;19.80;91.20
6375;DHT22;35400;45.472;-122.822;2023-09-18T02:37:41;19.80;90.70
6375;DHT22;35400;45.472;-122.822;2023-09-18T02:40:08;19.80;90.90
6375;DHT22;35400;45.472;-122.822;2023-09-18T02:42:36;19.70;90.80
6375;DHT22;35400;45.472;-122.822;2023-09-18T02:45:03;19.70;90.70
6375;DHT22;35400;45.472;-122.822;2023-09-18T02:47:29;19.60;89.60
6375;DHT22;35400;45.472;-122.822;2023-09-18T02:49:56;19.60;89.40
6375;DHT22;35400;45.472;-122.822;2023-09-18T02:52:23;19.60;89.00
6375;DHT22;35400;45.472;-122.822;2023-09-18T02:54:50;19.50;88.90
6375;DHT22;35400;45.472;-122.822;2023-09-18T02:57:17;19.50;89.10
6375;DHT22;35400;45.472;-122.822;2023-09-18T02:59:44;19.40;89.50
6375;DHT22;35400;45.472;-122.822;2023-09-18T03:02:12;19.40;89.60
6375;DHT22;35400;45.472;-122.822;2023-09-18T03:04:38;19.30;89.70
6375;DHT22;35400;45.472;-122.822;2023-09-18T03:07:05;19.30;90.10
6375;DHT22;35400;45.472;-122.822;2023-09-18T03:09:32;19.30;90.30
6375;DHT22;35400;45.472;-122.822;2023-09-18T03:11:59;19.30;90.40
6375;DHT22;35400;45.472;-122.822;2023-09-18T03:14:26;19.20;90.60
6375;DHT22;35400;45.472;-122.822;2023-09-18T03:16:52;19.20;90.90
6375;DHT22;35400;45.472;-122.822;2023-09-18T03:19:19;19.10;90.90
6375;DHT22;35400;45.472;-122.822;2023-09-18T03:21:50;19.10;90.80
6375;DHT22;35400;45.472;-122.822;2023-09-18T03:24:16;19.10;90.90
6375;DHT22;35400;45.472;-122.822;2023-09-18T03:26:43;19.10;91.00
6375;DHT22;35400;45.472;-122.822;2023-09-18T03:29:11;19.00;91.10
6375;DHT22;35400;45.472;-122.822;2023-09-18T03:31:37;19.00;91.20
6375;DHT22;35400;45.472;-122.822;2023-09-18T03:34:04;18.90;91.30
6375;DHT22;35400;45.472;-122.822;2023-09-18T03:36:31;18.90;91.30
6375;DHT22;35400;45.472;-122.822;2023-09-18T03:38:59;18.90;91.30
6375;DHT22;35400;45.472;-122.822;2023-09-18T03:41:26;18.80;91.40
6375;DHT22;35400;45.472;-122.822;2023-09-18T03:43:53;18.80;91.50
6375;DHT22;35400;45.472;-122.822;2023-09-18T03:46:19;18.80;91.60
6375;DHT22;35400;45.472;-122.822;2023-09-18T03:48:49;18.80;91.70
6375;DHT22;35400;45.472;-122.822;2023-09-18T03:51:16;18.70;91.80
6375;DHT22;35400;45.472;-122.822;2023-09-18T03:53:44;18.60;91.90
6375;DHT22;35400;45.472;-122.822;2023-09-18T03:56:11;18.60;92.00
6375;DHT22;35400;45.472;-122.822;2023-09-18T03:58:38;18.60;92.20
6375;DHT22;35400;45.472;-122.822;2023-09-18T04:01:05;18.50;92.30
6375;DHT22;35400;45.472;-122.822;2023-09-18T04:03:32;18.50;92.40
6375;DHT22;35400;45.472;-122.822;2023-09-18T04:06:22;18.50;92.60
6375;DHT22;35400;45.472;-122.822;2023-09-18T04:08:50;18.50;92.70
6375;DHT22;35400;45.472;-122.822;2023-09-18T04:11:17;18.40;92.70
6375;DHT22;35400;45.472;-122.822;2023-09-18T04:13:51;18.40;92.80
6375;DHT22;35400;45.472;-122.822;2023-09-18T04:16:18;18.40;93.00
6375;DHT22;35400;45.472;-122.822;2023-09-18T04:18:45;18.40;93.20
6375;DHT22;35400;45.472;-122.822;2023-09-18T04:21:11;18.30;93.20
6375;DHT22;35400;45.472;-122.822;2023-09-18T04:23:38;18.30;93.30
6375;DHT22;35400;45.472;-122.822;2023-09-18T04:26:06;18.30;93.40
6375;DHT22;35400;45.472;-122.822;2023-09-18T04:28:33;18.20;93.40
6375;DHT22;35400;45.472;-122.822;2023-09-18T04:31:00;18.20;93.50
6375;DHT22;35400;45.472;-122.822;2023-09-18T04:33:27;18.20;93.50
6375;DHT22;35400;45.472;-122.822;2023-09-18T04:35:55;18.20;93.70
6375;DHT22;35400;45.472;-122.822;2023-09-18T04:38:22;18.20;94.10
6375;DHT22;35400;45.472;-122.822;2023-09-18T04:40:49;18.10;94.20
6375;DHT22;35400;45.472;-122.822;2023-09-18T04:43:16;18.10;94.20
6375;DHT22;35400;45.472;-122.822;2023-09-18T04:45:44;18.10;94.40
6375;DHT22;35400;45.472;-122.822;2023-09-18T04:48:13;18.10;94.60
6375;DHT22;35400;45.472;-122.822;2023-09-18T04:50:39;18.00;94.60
6375;DHT22;35400;45.472;-122.822;2023-09-18T04:53:06;18.00;94.70
6375;DHT22;35400;45.472;-122.822;2023-09-18T04:55:35;18.00;94.60
6375;DHT22;35400;45.472;-122.822;2023-09-18T04:58:02;18.00;94.60
6375;DHT22;35400;45.472;-122.822;2023-09-18T05:00:30;17.90;94.70
6375;DHT22;35400;45.472;-122.822;2023-09-18T05:02:58;17.90;94.80
6375;DHT22;35400;45.472;-122.822;2023-09-18T05:05:27;17.90;94.80
6375;DHT22;35400;45.472;-122.822;2023-09-18T05:07:56;17.90;95.10
6375;DHT22;35400;45.472;-122.822;2023-09-18T05:10:23;17.90;95.20
6375;DHT22;35400;45.472;-122.822;2023-09-18T05:12:50;17.90;95.30
6375;DHT22;35400;45.472;-122.822;2023-09-18T05:15:25;17.80;95.40
6375;DHT22;35400;45.472;-122.822;2023-09-18T05:17:59;17.80;95.60
6375;DHT22;35400;45.472;-122.822;2023-09-18T05:20:30;17.80;95.80
6375;DHT22;35400;45.472;-122.822;2023-09-18T05:22:58;17.80;95.80
6375;DHT22;35400;45.472;-122.822;2023-09-18T05:25:27;17.70;95.90
6375;DHT22;35400;45.472;-122.822;2023-09-18T05:27:57;17.70;95.80
6375;DHT22;35400;45.472;-122.822;2023-09-18T05:30:26;17.70;95.90
6375;DHT22;35400;45.472;-122.822;2023-09-18T05:32:58;17.70;96.00
6375;DHT22;35400;45.472;-122.822;2023-09-18T05:35:32;17.70;96.10
6375;DHT22;35400;45.472;-122.822;2023-09-18T05:37:59;17.60;96.10
6375;DHT22;35400;45.472;-122.822;2023-09-18T05:40:26;17.60;96.10
6375;DHT22;35400;45.472;-122.822;2023-09-18T05:42:53;17.60;96.20
6375;DHT22;35400;45.472;-122.822;2023-09-18T05:45:21;17.50;96.30
6375;DHT22;35400;45.472;-122.822;2023-09-18T05:47:49;17.50;96.40
6375;DHT22;35400;45.472;-122.822;2023-09-18T05:50:16;17.50;96.70
6375;DHT22;35400;45.472;-122.822;2023-09-18T05:52:47;17.40;96.90
6375;DHT22;35400;45.472;-122.822;2023-09-18T05:55:15;17.40;97.10
6375;DHT22;35400;45.472;-122.822;2023-09-18T05:57:42;17.40;97.20
6375;DHT22;35400;45.472;-122.822;2023-09-18T06:00:10;17.40;97.30
6375;DHT22;35400;45.472;-122.822;2023-09-18T06:02:40;17.30;97.60
6375;DHT22;35400;45.472;-122.822;2023-09-18T06:05:07;17.30;97.70
6375;DHT22;35400;45.472;-122.822;2023-09-18T06:07:37;17.30;97.90
6375;DHT22;35400;45.472;-122.822;2023-09-18T06:10:05;17.30;97.90
6375;DHT22;35400;45.472;-122.822;2023-09-18T06:12:32;17.20;98.00
6375;DHT22;35400;45.472;-122.822;2023-09-18T06:14:58;17.20;98.20
6375;DHT22;35400;45.472;-122.822;2023-09-18T06:17:25;17.20;98.40
6375;DHT22;35400;45.472;-122.822;2023-09-18T06:19:52;17.20;98.60
6375;DHT22;35400;45.472;-122.822;2023-09-18T06:22:19;17.20;98.60
6375;DHT22;35400;45.472;-122.822;2023-09-18T06:24:46;17.20;98.80
6375;DHT22;35400;45.472;-122.822;2023-09-18T06:27:13;17.10;98.90
6375;DHT22;35400;45.472;-122.822;2023-09-18T06:29:40;17.10;99.10
6375;DHT22;35400;45.472;-122.822;2023-09-18T06:32:09;17.10;99.20
6375;DHT22;35400;45.472;-122.822;2023-09-18T06:34:36;17.10;99.40
6375;DHT22;35400;45.472;-122.822;2023-09-18T06:37:03;17.10;99.60
6375;DHT22;35400;45.472;-122.822;2023-09-18T06:39:32;17.10;99.80
6375;DHT22;35400;45.472;-122.822;2023-09-18T06:41:59;17.00;99.90
6375;DHT22;35400;45.472;-122.822;2023-09-18T06:44:26;17.00;99.90
6375;DHT22;35400;45.472;-122.822;2023-09-18T06:46:53;17.00;99.90
6375;DHT22;35400;45.472;-122.822;2023-09-18T06:49:19;17.00;99.90
6375;DHT22;35400;45.472;-122.822;2023-09-18T06:51:46;16.90;99.90
6375;DHT22;35400;45.472;-122.822;2023-09-18T06:54:13;16.90;99.90
6375;DHT22;35400;45.472;-122.822;2023-09-18T06:56:40;16.90;99.90
6375;DHT22;35400;45.472;-122.822;2023-09-18T06:59:08;16.90;99.90
6375;DHT22;35400;45.472;-122.822;2023-09-18T07:01:34;16.90;99.90
6375;DHT22;35400;45.472;-122.822;2023-09-18T07:04:01;16.90;99.90
6375;DHT22;35400;45.472;-122.822;2023-09-18T07:06:28;16.90;99.90
6375;DHT22;35400;45.472;-122.822;2023-09-18T07:08:55;16.90;99.90
6375;DHT22;35400;45.472;-122.822;2023-09-18T07:11:22;16.90;99.90
6375;DHT22;35400;45.472;-122.822;2023-09-18T07:13:49;16.80;99.90
6375;DHT22;35400;45.472;-122.822;2023-09-18T07:16:16;16.80;99.90
6375;DHT22;35400;45.472;-122.822;2023-09-18T07:18:43;16.80;99.90
6375;DHT22;35400;45.472;-122.822;2023-09-18T07:21:10;16.80;99.90
6375;DHT22;35400;45.472;-122.822;2023-09-18T07:23:39;16.80;99.90
6375;DHT22;35400;45.472;-122.822;2023-09-18T07:26:06;16.70;99.90
6375;DHT22;35400;45.472;-122.822;2023-09-18T07:28:33;16.70;99.90
6375;DHT22;35400;45.472;-122.822;2023-09-18T07:31:06;16.70;99.90
6375;DHT22;35400;45.472;-122.822;2023-09-18T07:33:35;16.70;99.90
6375;DHT22;35400;45.472;-122.822;2023-09-18T07:36:01;16.60;99.90
6375;DHT22;35400;45.472;-122.822;2023-09-18T07:38:29;16.60;99.90
6375;DHT22;35400;45.472;-122.822;2023-09-18T07:40:57;16.60;99.90
6375;DHT22;35400;45.472;-122.822;2023-09-18T07:43:24;16.50;99.90
6375;DHT22;35400;45.472;-122.822;2023-09-18T07:45:53;16.50;99.90
6375;DHT22;35400;45.472;-122.822;2023-09-18T07:48:22;16.50;99.90
6375;DHT22;35400;45.472;-122.822;2023-09-18T07:50:49;16.50;99.90
6375;DHT22;35400;45.472;-122.822;2023-09-18T07:53:16;16.40;99.90
6375;DHT22;35400;45.472;-122.822;2023-09-18T07:55:43;16.40;99.90
6375;DHT22;35400;45.472;-122.822;2023-09-18T07:58:10;16.40;99.90
6375;DHT22;35400;45.472;-122.822;2023-09-18T08:00:37;16.30;99.90
6375;DHT22;35400;45.472;-122.822;2023-09-18T08:03:05;16.30;99.90
6375;DHT22;35400;45.472;-122.822;2023-09-18T08:05:32;16.30;99.90
6375;DHT22;35400;45.472;-122.822;2023-09-18T08:07:59;16.30;99.90
6375;DHT22;35400;45.472;-122.822;2023-09-18T08:10:26;16.30;99.90
6375;DHT22;35400;45.472;-122.822;2023-09-18T08:12:54;16.20;99.90
6375;DHT22;35400;45.472;-122.822;2023-09-18T08:15:22;16.20;99.90
6375;DHT22;35400;45.472;-122.822;2023-09-18T08:17:49;16.20;99.90
6375;DHT22;35400;45.472;-122.822;2023-09-18T08:20:16;16.10;99.90
6375;DHT22;35400;45.472;-122.822;2023-09-18T08:22:43;16.10;99.90
6375;DHT22;35400;45.472;-122.822;2023-09-18T08:25:11;16.10;99.90
6375;DHT22;35400;45.472;-122.822;2023-09-18T08:27:39;16.10;99.90
6375;DHT22;35400;45.472;-122.822;2023-09-18T08:30:08;16.10;99.90
6375;DHT22;35400;45.472;-122.822;2023-09-18T08:32:37;16.00;99.90
6375;DHT22;35400;45.472;-122.822;2023-09-18T08:35:05;16.00;99.90
6375;DHT22;35400;45.472;-122.822;2023-09-18T08:37:32;16.00;99.90
6375;DHT22;35400;45.472;-122.822;2023-09-18T08:39:59;16.00;99.90
6375;DHT22;35400;45.472;-122.822;2023-09-18T08:42:38;16.00;99.90
6375;DHT22;35400;45.472;-122.822;2023-09-18T08:45:09;15.90;99.90
6375;DHT22;35400;45.472;-122.822;2023-09-18T08:47:41;15.90;99.90
6375;DHT22;35400;45.472;-122.822;2023-09-18T08:50:11;15.90;99.90
6375;DHT22;35400;45.472;-122.822;2023-09-18T08:52:40;15.90;99.90
6375;DHT22;35400;45.472;-122.822;2023-09-18T08:55:08;15.90;99.90
6375;DHT22;35400;45.472;-122.822;2023-09-18T08:57:37;15.90;99.90
6375;DHT22;35400;45.472;-122.822;2023-09-18T09:00:05;15.90;99.90
6375;DHT22;35400;45.472;-122.822;2023-09-18T09:02:34;15.90;99.90
6375;DHT22;35400;45.472;-122.822;2023-09-18T09:05:02;15.90;99.90
6375;DHT22;35400;45.472;-122.822;2023-09-18T09:07:29;15.90;99.90
6375;DHT22;35400;45.472;-122.822;2023-09-18T09:09:57;15.80;99.90
6375;DHT22;35400;45.472;-122.822;2023-09-18T09:12:51;15.80;99.90
6375;DHT22;35400;45.472;-122.822;2023-09-18T09:15:21;15.80;99.90
6375;DHT22;35400;45.472;-122.822;2023-09-18T09:17:49;15.80;99.90
6375;DHT22;35400;45.472;-122.822;2023-09-18T09:20:16;15.70;99.90
6375;DHT22;35400;45.472;-122.822;2023-09-18T09:22:45;15.70;99.90
6375;DHT22;35400;45.472;-122.822;2023-09-18T09:25:23;15.70;99.90
6375;DHT22;35400;45.472;-122.822;2023-09-18T09:27:53;15.70;99.90
6375;DHT22;35400;45.472;-122.822;2023-09-18T09:30:25;15.70;99.90
6375;DHT22;35400;45.472;-122.822;2023-09-18T09:32:55;15.70;99.90
6375;DHT22;35400;45.472;-122.822;2023-09-18T09:35:29;15.70;99.90
6375;DHT22;35400;45.472;-122.822;2023-09-18T09:37:58;15.60;99.90
6375;DHT22;35400;45.472;-122.822;2023-09-18T09:40:28;15.60;99.90
6375;DHT22;35400;45.472;-122.822;2023-09-18T09:42:57;15.60;99.90
6375;DHT22;35400;45.472;-122.822;2023-09-18T09:45:31;15.60;99.90
6375;DHT22;35400;45.472;-122.822;2023-09-18T09:48:04;15.60;99.90
6375;DHT22;35400;45.472;-122.822;2023-09-18T09:50:32;15.60;99.90
6375;DHT22;35400;45.472;-122.822;2023-09-18T09:53:00;15.60;99.90
6375;DHT22;35400;45.472;-122.822;2023-09-18T09:55:32;15.60;99.90
6375;DHT22;35400;45.472;-122.822;2023-09-18T09:58:02;15.60;99.90
6375;DHT22;35400;45.472;-122.822;2023-09-18T10:00:34;15.60;99.90
6375;DHT22;35400;45.472;-122.822;2023-09-18T10:03:13;15.60;99.90
6375;DHT22;35400;45.472;-122.822;2023-09-18T10:05:45;15.50;99.90
6375;DHT22;35400;45.472;-122.822;2023-09-18T10:08:23;15.50;99.90
6375;DHT22;35400;45.472;-122.822;2023-09-18T10:10:53;15.50;99.90
6375;DHT22;35400;45.472;-122.822;2023-09-18T10:16:07;15.40;99.90
6375;DHT22;35400;45.472;-122.822;2023-09-18T10:21:26;15.40;99.90
6375;DHT22;35400;45.472;-122.822;2023-09-18T10:26:57;15.40;99.90
6375;DHT22;35400;45.472;-122.822;2023-09-18T10:29:29;15.30;99.90
6375;DHT22;35400;45.472;-122.822;2023-09-18T10:31:56;15.30;99.90
6375;DHT22;35400;45.472;-122.822;2023-09-18T10:34:24;15.30;99.90
6375;DHT22;35400;45.472;-122.822;2023-09-18T10:36:53;15.30;99.90
6375;DHT22;35400;45.472;-122.822;2023-09-18T10:39:26;15.30;99.90
6375;DHT22;35400;45.472;-122.822;2023-09-18T10:41:55;15.30;99.90
6375;DHT22;35400;45.472;-122.822;2023-09-18T10:44:28;15.20;99.90
6375;DHT22;35400;45.472;-122.822;2023-09-18T10:46:56;15.20;99.90
6375;DHT22;35400;45.472;-122.822;2023-09-18T10:49:23;15.20;99.90
6375;DHT22;35400;45.472;-122.822;2023-09-18T10:51:54;15.10;99.90
6375;DHT22;35400;45.472;-122.822;2023-09-18T10:54:24;15.10;99.90
6375;DHT22;35400;45.472;-122.822;2023-09-18T10:56:51;15.10;99.90
6375;DHT22;35400;45.472;-122.822;2023-09-18T10:59:19;15.10;99.90
6375;DHT22;35400;45.472;-122.822;2023-09-18T11:01:47;15.10;99.90
6375;DHT22;35400;45.472;-122.822;2023-09-18T11:04:21;15.10;99.90
6375;DHT22;35400;45.472;-122.822;2023-09-18T11:09:27;15.10;99.90
6375;DHT22;35400;45.472;-122.822;2023-09-18T11:12:02;15.00;99.90
6375;DHT22;35400;45.472;-122.822;2023-09-18T11:14:48;15.00;99.90
6375;DHT22;35400;45.472;-122.822;2023-09-18T11:17:40;15.00;99.90
6375;DHT22;35400;45.472;-122.822;2023-09-18T11:20:09;15.00;99.90
6375;DHT22;35400;45.472;-122.822;2023-09-18T11:22:40;15.00;99.90
6375;DHT22;35400;45.472;-122.822;2023-09-18T11:25:34;15.00;99.90
6375;DHT22;35400;45.472;-122.822;2023-09-18T11:28:02;15.00;99.90
6375;DHT22;35400;45.472;-122.822;2023-09-18T11:30:29;15.00;99.90
6375;DHT22;35400;45.472;-122.822;2023-09-18T11:32:56;15.00;99.90
6375;DHT22;35400;45.472;-122.822;2023-09-18T11:35:25;15.00;99.90
6375;DHT22;35400;45.472;-122.822;2023-09-18T11:38:09;14.90;99.90
6375;DHT22;35400;45.472;-122.822;2023-09-18T11:40:38;14.90;99.90
6375;DHT22;35400;45.472;-122.822;2023-09-18T11:43:25;14.90;99.90
6375;DHT22;35400;45.472;-122.822;2023-09-18T11:45:54;14.90;99.90
6375;DHT22;35400;45.472;-122.822;2023-09-18T11:48:25;14.90;99.90
6375;DHT22;35400;45.472;-122.822;2023-09-18T11:50:59;14.90;99.90
6375;DHT22;35400;45.472;-122.822;2023-09-18T11:53:27;14.90;99.90
6375;DHT22;35400;45.472;-122.822;2023-09-18T11:55:55;14.90;99.90
6375;DHT22;35400;45.472;-122.822;2023-09-18T11:58:22;14.90;99.90
6375;DHT22;35400;45.472;-122.822;2023-09-18T12:00:50;14.90;99.90
6375;DHT22;35400;45.472;-122.822;2023-09-18T12:03:19;14.90;99.90
6375;DHT22;35400;45.472;-122.822;2023-09-18T12:05:59;14.90;99.90
6375;DHT22;35400;45.472;-122.822;2023-09-18T12:08:26;15.00;99.90
6375;DHT22;35400;45.472;-122.822;2023-09-18T12:10:56;15.00;99.90
6375;DHT22;35400;45.472;-122.822;2023-09-18T12:13:26;15.00;99.90
6375;DHT22;35400;45.472;-122.822;2023-09-18T12:16:02;15.00;99.90
6375;DHT22;35400;45.472;-122.822;2023-09-18T12:18:32;15.10;99.90
6375;DHT22;35400;45.472;-122.822;2023-09-18T12:21:06;15.10;99.90
6375;DHT22;35400;45.472;-122.822;2023-09-18T12:23:40;15.10;99.90
6375;DHT22;35400;45.472;-122.822;2023-09-18T12:26:12;15.10;99.90
6375;DHT22;35400;45.472;-122.822;2023-09-18T12:28:43;15.10;99.90
6375;DHT22;35400;45.472;-122.822;2023-09-18T12:31:14;15.10;99.90
6375;DHT22;35400;45.472;-122.822;2023-09-18T12:33:42;15.10;99.90
6375;DHT22;35400;45.472;-122.822;2023-09-18T12:36:18;15.10;99.90
6375;DHT22;35400;45.472;-122.822;2023-09-18T12:38:59;15.10;99.90
6375;DHT22;35400;45.472;-122.822;2023-09-18T12:41:30;15.20;99.90
6375;DHT22;35400;45.472;-122.822;2023-09-18T12:43:58;15.20;99.90
6375;DHT22;35400;45.472;-122.822;2023-09-18T12:46:25;15.20;99.90
6375;DHT22;35400;45.472;-122.822;2023-09-18T12:48:52;15.20;99.90
6375;DHT22;35400;45.472;-122.822;2023-09-18T12:51:31;15.20;99.90
6375;DHT22;35400;45.472;-122.822;2023-09-18T12:54:01;15.20;99.90
6375;DHT22;35400;45.472;-122.822;2023-09-18T12:56:32;15.30;99.90
6375;DHT22;35400;45.472;-122.822;2023-09-18T12:58:59;15.30;99.90
6375;DHT22;35400;45.472;-122.822;2023-09-18T13:01:26;15.30;99.90
6375;DHT22;35400;45.472;-122.822;2023-09-18T13:03:54;15.30;99.90
6375;DHT22;35400;45.472;-122.822;2023-09-18T13:06:26;15.30;99.90
6375;DHT22;35400;45.472;-122.822;2023-09-18T13:08:52;15.30;99.90
6375;DHT22;35400;45.472;-122.822;2023-09-18T13:11:19;15.40;99.90
6375;DHT22;35400;45.472;-122.822;2023-09-18T13:13:46;15.50;99.90
6375;DHT22;35400;45.472;-122.822;2023-09-18T13:16:23;15.50;99.90
6375;DHT22;35400;45.472;-122.822;2023-09-18T13:18:51;15.50;99.90
6375;DHT22;35400;45.472;-122.822;2023-09-18T13:21:18;15.40;99.90
6375;DHT22;35400;45.472;-122.822;2023-09-18T13:23:46;15.40;99.90
6375;DHT22;35400;45.472;-122.822;2023-09-18T13:26:13;15.40;99.90
6375;DHT22;35400;45.472;-122.822;2023-09-18T13:28:40;15.50;99.90
6375;DHT22;35400;45.472;-122.822;2023-09-18T13:31:09;15.50;99.90
6375;DHT22;35400;45.472;-122.822;2023-09-18T13:33:39;15.50;99.90
6375;DHT22;35400;45.472;-122.822;2023-09-18T13:36:06;15.50;99.90
6375;DHT22;35400;45.472;-122.822;2023-09-18T13:38:33;15.50;99.90
6375;DHT22;35400;45.472;-122.822;2023-09-18T13:41:00;15.50;99.90
6375;DHT22;35400;45.472;-122.822;2023-09-18T13:43:26;15.50;99.90
6375;DHT22;35400;45.472;-122.822;2023-09-18T13:45:54;15.50;99.90
6375;DHT22;35400;45.472;-122.822;2023-09-18T13:48:23;15.50;99.90
6375;DHT22;35400;45.472;-122.822;2023-09-18T13:50:50;15.50;99.90
6375;DHT22;35400;45.472;-122.822;2023-09-18T13:53:18;15.50;99.90
6375;DHT22;35400;45.472;-122.822;2023-09-18T13:55:45;15.50;99.90
6375;DHT22;35400;45.472;-122.822;2023-09-18T13:58:12;15.60;99.90
6375;DHT22;35400;45.472;-122.822;2023-09-18T14:00:39;15.60;99.90
6375;DHT22;35400;45.472;-122.822;2023-09-18T14:03:05;15.60;99.90
6375;DHT22;35400;45.472;-122.822;2023-09-18T14:05:32;15.60;99.90
6375;DHT22;35400;45.472;-122.822;2023-09-18T14:08:00;15.60;99.90
6375;DHT22;35400;45.472;-122.822;2023-09-18T14:10:28;15.60;99.90
6375;DHT22;35400;45.472;-122.822;2023-09-18T14:12:54;15.60;99.90
6375;DHT22;35400;45.472;-122.822;2023-09-18T14:15:21;15.60;99.90
6375;DHT22;35400;45.472;-122.822;2023-09-18T14:17:48;15.70;99.90
6375;DHT22;35400;45.472;-122.822;2023-09-18T14:20:15;15.70;99.90
6375;DHT22;35400;45.472;-122.822;2023-09-18T14:22:45;15.70;99.90
6375;DHT22;35400;45.472;-122.822;2023-09-18T14:25:13;15.70;99.90
6375;DHT22;35400;45.472;-122.822;2023-09-18T14:27:40;15.70;99.90
6375;DHT22;35400;45.472;-122.822;2023-09-18T14:30:07;15.80;99.90
6375;DHT22;35400;45.472;-122.822;2023-09-18T14:32:35;15.80;99.90
6375;DHT22;35400;45.472;-122.822;2023-09-18T14:35:04;15.80;99.90
6375;DHT22;35400;45.472;-122.822;2023-09-18T14:37:31;15.80;99.90
6375;DHT22;35400;45.472;-122.822;2023-09-18T14:39:58;15.80;99.90
6375;DHT22;35400;45.472;-122.822;2023-09-18T14:42:25;15.80;99.90
6375;DHT22;35400;45.472;-122.822;2023-09-18T14:44:52;15.90;99.90
6375;DHT22;35400;45.472;-122.822;2023-09-18T14:47:19;15.90;99.90
6375;DHT22;35400;45.472;-122.822;2023-09-18T14:49:45;15.90;99.90
6375;DHT22;35400;45.472;-122.822;2023-09-18T14:52:14;15.90;99.90
6375;DHT22;35400;45.472;-122.822;2023-09-18T14:54:42;15.90;99.90
6375;DHT22;35400;45.472;-122.822;2023-09-18T14:57:09;15.90;99.90
6375;DHT22;35400;45.472;-122.822;2023-09-18T14:59:36;15.80;99.90
6375;DHT22;35400;45.472;-122.822;2023-09-18T15:02:04;15.80;99.90
6375;DHT22;35400;45.472;-122.822;2023-09-18T15:04:32;15.80;99.90
6375;DHT22;35400;45.472;-122.822;2023-09-18T15:07:00;15.80;99.90
6375;DHT22;35400;45.472;-122.822;2023-09-18T15:09:27;15.70;99.90
6375;DHT22;35400;45.472;-122.822;2023-09-18T15:11:54;15.70;99.90
6375;DHT22;35400;45.472;-122.822;2023-09-18T15:14:20;15.70;99.90
6375;DHT22;35400;45.472;-122.822;2023-09-18T15:16:47;15.70;99.90
6375;DHT22;35400;45.472;-122.822;2023-09-18T15:19:15;15.70;99.90
6375;DHT22;35400;45.472;-122.822;2023-09-18T15:21:43;15.80;99.90
6375;DHT22;35400;45.472;-122.822;2023-09-18T15:24:10;15.80;99.90
6375;DHT22;35400;45.472;-122.822;2023-09-18T15:26:37;15.90;99.90